sensor_id;sensor_type;location;lat;lon;timestamp;pressure;altitude;pressure_sealevel;temperature;humidity
32033;BME280;31720;52.638;9.216;2023-03-31T00:01:27;100131.16;;;10.57;100.00
32033;BME280;31720;52.638;9.216;2023-03-31T00:04:29;100126.69;;;10.59;100.00
32033;BME280;31720;52.638;9.216;2023-03-31T00:07:31;100116.91;;;10.61;100.00
32033;BME280;31720;52.638;9.216;2023-03-31T00:10:33;100123.28;;;10.57;100.00
32033;BME280;31720;52.638;9.216;2023-03-31T00:13:39;100126.16;;;10.66;100.00
32033;BME280;31720;52.638;9.216;2023-03-31T00:16:40;100119.88;;;10.69;100.00
32033;BME280;31720;52.638;9.216;2023-03-31T00:19:41;100109.00;;;10.61;100.00
32033;BME280;31720;52.638;9.216;2023-03-31T00:22:43;100108.28;;;10.59;100.00
32033;BME280;31720;52.638;9.216;2023-03-31T00:25:46;100097.69;;;10.46;100.00
32033;BME280;31720;52.638;9.216;2023-03-31T00:28:49;100101.34;;;10.44;100.00
32033;BME280;31720;52.638;9.216;2023-03-31T00:31:50;100085.69;;;10.42;100.00
32033;BME280;31720;52.638;9.216;2023-03-31T00:34:52;100084.03;;;10.41;100.00
32033;BME280;31720;52.638;9.216;2023-03-31T00:37:53;100077.06;;;10.40;100.00
32033;BME280;31720;52.638;9.216;2023-03-31T00:40:57;100079.41;;;10.45;100.00
32033;BME280;31720;52.638;9.216;2023-03-31T00:44:08;100064.69;;;10.42;100.00
32033;BME280;31720;52.638;9.216;2023-03-31T00:47:12;100063.84;;;10.41;100.00
32033;BME280;31720;52.638;9.216;2023-03-31T00:50:19;100064.22;;;10.35;100.00
32033;BME280;31720;52.638;9.216;2023-03-31T00:53:24;100059.06;;;10.34;100.00
32033;BME280;31720;52.638;9.216;2023-03-31T00:56:30;100053.16;;;10.30;100.00
32033;BME280;31720;52.638;9.216;2023-03-31T00:59:37;100058.22;;;10.33;100.00
32033;BME280;31720;52.638;9.216;2023-03-31T01:02:40;100054.94;;;10.30;100.00
32033;BME280;31720;52.638;9.216;2023-03-31T01:05:53;100048.84;;;10.29;100.00
32033;BME280;31720;52.638;9.216;2023-03-31T01:08:56;100047.44;;;10.24;100.00
32033;BME280;31720;52.638;9.216;2023-03-31T01:11:58;100036.47;;;10.17;100.00
32033;BME280;31720;52.638;9.216;2023-03-31T01:15:02;100024.56;;;10.11;100.00
32033;BME280;31720;52.638;9.216;2023-03-31T01:18:04;100027.75;;;10.16;100.00
32033;BME280;31720;52.638;9.216;2023-03-31T01:21:29;100025.22;;;10.15;100.00
32033;BME280;31720;52.638;9.216;2023-03-31T01:25:03;100010.59;;;10.11;100.00
32033;BME280;31720;52.638;9.216;2023-03-31T01:28:24;100008.16;;;10.08;100.00
32033;BME280;31720;52.638;9.216;2023-03-31T01:31:48;99997.94;;;10.03;100.00
32033;BME280;31720;52.638;9.216;2023-03-31T01:35:27;99997.41;;;9.98;100.00
32033;BME280;31720;52.638;9.216;2023-03-31T01:39:01;99990.59;;;9.96;100.00
32033;BME280;31720;52.638;9.216;2023-03-31T01:42:18;99998.75;;;9.91;100.00
32033;BME280;31720;52.638;9.216;2023-03-31T01:45:27;99991.78;;;9.90;100.00
32033;BME280;31720;52.638;9.216;2023-03-31T01:48:39;99984.13;;;9.87;100.00
32033;BME280;31720;52.638;9.216;2023-03-31T01:51:51;99982.34;;;9.87;100.00
32033;BME280;31720;52.638;9.216;2023-03-31T01:55:00;99967.00;;;9.81;100.00
32033;BME280;31720;52.638;9.216;2023-03-31T01:58:11;99962.94;;;9.76;100.00
32033;BME280;31720;52.638;9.216;2023-03-31T02:01:16;99955.28;;;9.73;100.00
32033;BME280;31720;52.638;9.216;2023-03-31T02:04:20;99953.03;;;9.66;100.00
32033;BME280;31720;52.638;9.216;2023-03-31T02:07:26;99953.25;;;9.63;100.00
32033;BME280;31720;52.638;9.216;2023-03-31T02:10:30;99954.38;;;9.59;100.00
32033;BME280;31720;52.638;9.216;2023-03-31T02:13:35;99943.22;;;9.56;100.00
32033;BME280;31720;52.638;9.216;2023-03-31T02:16:41;99940.69;;;9.54;100.00
32033;BME280;31720;52.638;9.216;2023-03-31T02:19:48;99946.38;;;9.61;100.00
32033;BME280;31720;52.638;9.216;2023-03-31T02:22:53;99941.41;;;9.71;100.00
32033;BME280;31720;52.638;9.216;2023-03-31T02:25:59;99931.66;;;9.73;100.00
32033;BME280;31720;52.638;9.216;2023-03-31T02:29:04;99929.38;;;9.81;100.00
32033;BME280;31720;52.638;9.216;2023-03-31T02:32:10;99930.03;;;9.84;100.00
32033;BME280;31720;52.638;9.216;2023-03-31T02:35:16;99917.28;;;9.93;100.00
32033;BME280;31720;52.638;9.216;2023-03-31T02:38:18;99914.66;;;9.93;100.00
32033;BME280;31720;52.638;9.216;2023-03-31T02:41:19;99916.31;;;9.94;100.00
32033;BME280;31720;52.638;9.216;2023-03-31T02:44:23;99908.75;;;9.89;100.00
32033;BME280;31720;52.638;9.216;2023-03-31T02:47:24;99908.56;;;9.92;100.00
32033;BME280;31720;52.638;9.216;2023-03-31T02:50:29;99898.78;;;9.94;100.00
32033;BME280;31720;52.638;9.216;2023-03-31T02:53:43;99890.53;;;10.00;100.00
32033;BME280;31720;52.638;9.216;2023-03-31T02:57:07;99895.88;;;9.99;100.00
32033;BME280;31720;52.638;9.216;2023-03-31T03:00:23;99896.75;;;9.99;100.00
32033;BME280;31720;52.638;9.216;2023-03-31T03:03:36;99889.78;;;9.98;100.00
32033;BME280;31720;52.638;9.216;2023-03-31T03:06:47;99881.91;;;9.98;100.00
32033;BME280;31720;52.638;9.216;2023-03-31T03:10:00;99881.19;;;9.96;100.00
32033;BME280;31720;52.638;9.216;2023-03-31T03:13:08;99867.13;;;9.97;100.00
32033;BME280;31720;52.638;9.216;2023-03-31T03:16:20;99867.13;;;9.97;100.00
32033;BME280;31720;52.638;9.216;2023-03-31T03:19:24;99861.13;;;9.95;100.00
32033;BME280;31720;52.638;9.216;2023-03-31T03:22:26;99858.59;;;9.94;100.00
32033;BME280;31720;52.638;9.216;2023-03-31T03:25:27;99864.13;;;9.89;100.00
32033;BME280;31720;52.638;9.216;2023-03-31T03:28:29;99858.16;;;9.87;100.00
32033;BME280;31720;52.638;9.216;2023-03-31T03:31:32;99846.06;;;9.84;100.00
32033;BME280;31720;52.638;9.216;2023-03-31T03:34:33;99842.06;;;9.79;100.00
32033;BME280;31720;52.638;9.216;2023-03-31T03:37:35;99842.16;;;9.77;100.00
32033;BME280;31720;52.638;9.216;2023-03-31T03:40:37;99835.13;;;9.78;100.00
32033;BME280;31720;52.638;9.216;2023-03-31T03:43:38;99831.03;;;9.74;100.00
32033;BME280;31720;52.638;9.216;2023-03-31T03:46:41;99823.44;;;9.69;100.00
32033;BME280;31720;52.638;9.216;2023-03-31T03:49:42;99811.28;;;9.68;100.00
32033;BME280;31720;52.638;9.216;2023-03-31T03:52:44;99810.63;;;9.64;100.00
32033;BME280;31720;52.638;9.216;2023-03-31T03:55:46;99803.72;;;9.63;100.00
32033;BME280;31720;52.638;9.216;2023-03-31T03:58:48;99797.41;;;9.66;100.00
32033;BME280;31720;52.638;9.216;2023-03-31T04:01:51;99796.03;;;9.60;100.00
32033;BME280;31720;52.638;9.216;2023-03-31T04:04:52;99784.88;;;9.57;100.00
32033;BME280;31720;52.638;9.216;2023-03-31T04:07:53;99775.22;;;9.57;100.00
32033;BME280;31720;52.638;9.216;2023-03-31T04:10:55;99765.78;;;9.55;100.00
32033;BME280;31720;52.638;9.216;2023-03-31T04:13:56;99765.56;;;9.58;100.00
32033;BME280;31720;52.638;9.216;2023-03-31T04:16:59;99756.50;;;9.63;100.00
32033;BME280;31720;52.638;9.216;2023-03-31T04:20:03;99743.25;;;9.65;100.00
32033;BME280;31720;52.638;9.216;2023-03-31T04:23:06;99737.28;;;9.63;100.00
32033;BME280;31720;52.638;9.216;2023-03-31T04:26:09;99732.25;;;9.60;100.00
32033;BME280;31720;52.638;9.216;2023-03-31T04:29:11;99722.69;;;9.59;100.00
32033;BME280;31720;52.638;9.216;2023-03-31T04:32:14;99716.50;;;9.60;100.00
32033;BME280;31720;52.638;9.216;2023-03-31T04:35:21;99704.09;;;9.62;100.00
32033;BME280;31720;52.638;9.216;2023-03-31T04:38:23;99697.06;;;9.62;100.00
32033;BME280;31720;52.638;9.216;2023-03-31T04:41:32;99688.91;;;9.67;100.00
32033;BME280;31720;52.638;9.216;2023-03-31T04:44:33;99682.09;;;9.64;100.00
32033;BME280;31720;52.638;9.216;2023-03-31T04:47:36;99665.53;;;9.64;100.00
32033;BME280;31720;52.638;9.216;2023-03-31T04:50:37;99660.16;;;9.65;100.00
32033;BME280;31720;52.638;9.216;2023-03-31T04:53:39;99664.69;;;9.63;100.00
32033;BME280;31720;52.638;9.216;2023-03-31T04:56:40;99651.34;;;9.66;100.00
32033;BME280;31720;52.638;9.216;2023-03-31T04:59:42;99655.88;;;9.64;100.00
32033;BME280;31720;52.638;9.216;2023-03-31T05:02:44;99644.31;;;9.67;100.00
32033;BME280;31720;52.638;9.216;2023-03-31T05:05:46;99646.09;;;9.66;100.00
32033;BME280;31720;52.638;9.216;2023-03-31T05:08:47;99650.63;;;9.64;100.00
32033;BME280;31720;52.638;9.216;2023-03-31T05:11:48;99645.47;;;9.63;100.00
32033;BME280;31720;52.638;9.216;2023-03-31T05:14:50;99649.88;;;9.62;100.00
32033;BME280;31720;52.638;9.216;2023-03-31T05:17:53;99639.38;;;9.62;100.00
32033;BME280;31720;52.638;9.216;2023-03-31T05:20:55;99641.16;;;9.62;100.00
32033;BME280;31720;52.638;9.216;2023-03-31T05:23:56;99640.13;;;9.64;100.00
32033;BME280;31720;52.638;9.216;2023-03-31T05:26:58;99635.06;;;9.61;100.00
32033;BME280;31720;52.638;9.216;2023-03-31T05:29:59;99629.81;;;9.61;100.00
32033;BME280;31720;52.638;9.216;2023-03-31T05:33:02;99636.66;;;9.64;100.00
32033;BME280;31720;52.638;9.216;2023-03-31T05:36:04;99633.19;;;9.63;100.00
32033;BME280;31720;52.638;9.216;2023-03-31T05:39:05;99627.84;;;9.65;100.00
32033;BME280;31720;52.638;9.216;2023-03-31T05:42:07;99623.44;;;9.65;100.00
32033;BME280;31720;52.638;9.216;2023-03-31T05:45:09;99616.50;;;9.64;100.00
32033;BME280;31720;52.638;9.216;2023-03-31T05:48:12;99615.88;;;9.61;100.00
32033;BME280;31720;52.638;9.216;2023-03-31T05:51:14;99615.88;;;9.61;100.00
32033;BME280;31720;52.638;9.216;2023-03-31T05:54:15;99611.78;;;9.57;100.00
32033;BME280;31720;52.638;9.216;2023-03-31T05:57:17;99609.47;;;9.52;100.00
32033;BME280;31720;52.638;9.216;2023-03-31T06:00:18;99604.66;;;9.59;100.00
32033;BME280;31720;52.638;9.216;2023-03-31T06:03:21;99598.78;;;9.55;100.00
32033;BME280;31720;52.638;9.216;2023-03-31T06:06:23;99587.22;;;9.58;100.00
32033;BME280;31720;52.638;9.216;2023-03-31T06:09:25;99584.06;;;9.53;100.00
32033;BME280;31720;52.638;9.216;2023-03-31T06:12:27;99577.78;;;9.55;100.00
32033;BME280;31720;52.638;9.216;2023-03-31T06:15:28;99580.22;;;9.58;100.00
32033;BME280;31720;52.638;9.216;2023-03-31T06:18:33;99568.03;;;9.57;100.00
32033;BME280;31720;52.638;9.216;2023-03-31T06:21:35;99568.56;;;9.50;100.00
32033;BME280;31720;52.638;9.216;2023-03-31T06:24:36;99575.47;;;9.51;100.00
32033;BME280;31720;52.638;9.216;2023-03-31T06:27:38;99570.13;;;9.52;100.00
32033;BME280;31720;52.638;9.216;2023-03-31T06:30:39;99564.03;;;9.52;100.00
32033;BME280;31720;52.638;9.216;2023-03-31T06:33:42;99562.25;;;9.52;100.00
32033;BME280;31720;52.638;9.216;2023-03-31T06:36:44;99561.63;;;9.61;100.00
32033;BME280;31720;52.638;9.216;2023-03-31T06:39:45;99566.16;;;9.59;100.00
32033;BME280;31720;52.638;9.216;2023-03-31T06:42:48;99571.41;;;9.59;100.00
32033;BME280;31720;52.638;9.216;2023-03-31T06:45:51;99568.03;;;9.57;100.00
32033;BME280;31720;52.638;9.216;2023-03-31T06:48:54;99560.28;;;9.56;100.00
32033;BME280;31720;52.638;9.216;2023-03-31T06:51:55;99561.22;;;9.55;100.00
32033;BME280;31720;52.638;9.216;2023-03-31T06:54:57;99561.31;;;9.53;100.00
32033;BME280;31720;52.638;9.216;2023-03-31T06:57:59;99550.81;;;9.53;100.00
32033;BME280;31720;52.638;9.216;2023-03-31T07:01:02;99552.41;;;9.56;100.00
32033;BME280;31720;52.638;9.216;2023-03-31T07:04:04;99549.59;;;9.59;100.00
32033;BME280;31720;52.638;9.216;2023-03-31T07:07:06;99541.41;;;9.63;100.00
32033;BME280;31720;52.638;9.216;2023-03-31T07:10:07;99537.81;;;9.64;100.00
32033;BME280;31720;52.638;9.216;2023-03-31T07:13:09;99520.19;;;9.66;100.00
32033;BME280;31720;52.638;9.216;2023-03-31T07:16:10;99524.19;;;9.72;100.00
32033;BME280;31720;52.638;9.216;2023-03-31T07:19:14;99525.75;;;9.75;100.00
32033;BME280;31720;52.638;9.216;2023-03-31T07:22:16;99528.88;;;9.80;100.00
32033;BME280;31720;52.638;9.216;2023-03-31T07:25:17;99515.69;;;9.81;100.00
32033;BME280;31720;52.638;9.216;2023-03-31T07:28:18;99514.50;;;9.85;100.00
32033;BME280;31720;52.638;9.216;2023-03-31T07:31:20;99501.47;;;9.84;100.00
32033;BME280;31720;52.638;9.216;2023-03-31T07:34:22;99492.91;;;9.82;100.00
32033;BME280;31720;52.638;9.216;2023-03-31T07:37:24;99499.81;;;9.83;100.00
32033;BME280;31720;52.638;9.216;2023-03-31T07:40:27;99493.72;;;9.82;100.00
32033;BME280;31720;52.638;9.216;2023-03-31T07:43:29;99483.13;;;9.84;100.00
32033;BME280;31720;52.638;9.216;2023-03-31T07:46:30;99483.88;;;9.86;100.00
32033;BME280;31720;52.638;9.216;2023-03-31T07:49:33;99487.41;;;9.85;100.00
32033;BME280;31720;52.638;9.216;2023-03-31T07:52:35;99476.19;;;9.83;100.00
32033;BME280;31720;52.638;9.216;2023-03-31T07:55:37;99465.59;;;9.84;100.00
32033;BME280;31720;52.638;9.216;2023-03-31T07:58:38;99460.25;;;9.86;100.00
32033;BME280;31720;52.638;9.216;2023-03-31T08:01:39;99456.56;;;9.88;100.00
32033;BME280;31720;52.638;9.216;2023-03-31T08:04:43;99446.69;;;9.92;100.00
32033;BME280;31720;52.638;9.216;2023-03-31T08:07:47;99441.56;;;9.90;100.00
32033;BME280;31720;52.638;9.216;2023-03-31T08:10:49;99442.38;;;9.91;100.00
32033;BME280;31720;52.638;9.216;2023-03-31T08:13:51;99448.34;;;9.93;100.00
32033;BME280;31720;52.638;9.216;2023-03-31T08:16:52;99434.41;;;9.93;100.00
32033;BME280;31720;52.638;9.216;2023-03-31T08:19:55;99429.16;;;9.93;100.00
32033;BME280;31720;52.638;9.216;2023-03-31T08:22:57;99416.66;;;9.96;100.00
32033;BME280;31720;52.638;9.216;2023-03-31T08:26:08;99415.69;;;9.97;100.00
32033;BME280;31720;52.638;9.216;2023-03-31T08:29:09;99411.09;;;9.88;100.00
32033;BME280;31720;52.638;9.216;2023-03-31T08:32:11;99409.81;;;9.94;100.00
32033;BME280;31720;52.638;9.216;2023-03-31T08:35:13;99406.69;;;9.88;100.00
32033;BME280;31720;52.638;9.216;2023-03-31T08:38:15;99405.34;;;9.83;100.00
32033;BME280;31720;52.638;9.216;2023-03-31T08:41:26;99406.91;;;9.85;100.00
32033;BME280;31720;52.638;9.216;2023-03-31T08:44:33;99398.81;;;9.88;100.00
32033;BME280;31720;52.638;9.216;2023-03-31T08:47:37;99390.41;;;9.96;100.00
32033;BME280;31720;52.638;9.216;2023-03-31T08:50:45;99380.63;;;9.98;100.00
32033;BME280;31720;52.638;9.216;2023-03-31T08:53:50;99374.69;;;10.07;100.00
32033;BME280;31720;52.638;9.216;2023-03-31T08:56:52;99367.84;;;10.18;100.00
32033;BME280;31720;52.638;9.216;2023-03-31T08:59:54;99362.78;;;10.27;100.00
32033;BME280;31720;52.638;9.216;2023-03-31T09:03:00;99360.31;;;10.37;100.00
32033;BME280;31720;52.638;9.216;2023-03-31T09:06:06;99355.19;;;10.47;100.00
32033;BME280;31720;52.638;9.216;2023-03-31T09:09:21;99355.66;;;10.40;100.00
32033;BME280;31720;52.638;9.216;2023-03-31T09:12:34;99351.72;;;10.46;100.00
32033;BME280;31720;52.638;9.216;2023-03-31T09:15:39;99350.56;;;10.50;100.00
32033;BME280;31720;52.638;9.216;2023-03-31T09:18:43;99348.88;;;10.49;100.00
32033;BME280;31720;52.638;9.216;2023-03-31T09:21:48;99341.09;;;10.48;100.00
32033;BME280;31720;52.638;9.216;2023-03-31T09:24:55;99342.91;;;10.47;100.00
32033;BME280;31720;52.638;9.216;2023-03-31T09:28:01;99338.72;;;10.45;100.00
32033;BME280;31720;52.638;9.216;2023-03-31T09:31:10;99336.41;;;10.40;100.00
32033;BME280;31720;52.638;9.216;2023-03-31T09:34:15;99333.69;;;10.41;100.00
32033;BME280;31720;52.638;9.216;2023-03-31T09:37:19;99331.16;;;10.40;100.00
32033;BME280;31720;52.638;9.216;2023-03-31T09:40:22;99334.88;;;10.37;100.00
32033;BME280;31720;52.638;9.216;2023-03-31T09:43:26;99328.88;;;10.35;100.00
32033;BME280;31720;52.638;9.216;2023-03-31T09:46:30;99323.41;;;10.38;100.00
32033;BME280;31720;52.638;9.216;2023-03-31T09:49:33;99318.91;;;10.40;100.00
32033;BME280;31720;52.638;9.216;2023-03-31T09:52:39;99330.47;;;10.38;100.00
32033;BME280;31720;52.638;9.216;2023-03-31T09:55:43;99317.09;;;10.41;100.00
32033;BME280;31720;52.638;9.216;2023-03-31T09:58:45;99321.88;;;10.36;100.00
32033;BME280;31720;52.638;9.216;2023-03-31T10:01:48;99319.00;;;10.39;100.00
32033;BME280;31720;52.638;9.216;2023-03-31T10:04:51;99311.72;;;10.43;100.00
32033;BME280;31720;52.638;9.216;2023-03-31T10:08:13;99310.41;;;10.37;100.00
32033;BME280;31720;52.638;9.216;2023-03-31T10:11:19;99299.28;;;10.33;100.00
32033;BME280;31720;52.638;9.216;2023-03-31T10:14:24;99305.72;;;10.29;100.00
32033;BME280;31720;52.638;9.216;2023-03-31T10:17:27;99306.81;;;10.27;100.00
32033;BME280;31720;52.638;9.216;2023-03-31T10:20:33;99303.84;;;10.31;100.00
32033;BME280;31720;52.638;9.216;2023-03-31T10:23:45;99303.88;;;10.19;100.00
32033;BME280;31720;52.638;9.216;2023-03-31T10:26:47;99297.31;;;10.13;100.00
32033;BME280;31720;52.638;9.216;2023-03-31T10:29:51;99308.66;;;10.13;100.00
32033;BME280;31720;52.638;9.216;2023-03-31T10:32:52;99299.81;;;10.14;100.00
32033;BME280;31720;52.638;9.216;2023-03-31T10:35:55;99296.22;;;10.15;100.00
32033;BME280;31720;52.638;9.216;2023-03-31T10:38:59;99291.09;;;10.14;100.00
32033;BME280;31720;52.638;9.216;2023-03-31T10:42:05;99298.03;;;10.15;100.00
32033;BME280;31720;52.638;9.216;2023-03-31T10:45:12;99295.06;;;10.20;100.00
32033;BME280;31720;52.638;9.216;2023-03-31T10:48:18;99292.22;;;10.23;100.00
32033;BME280;31720;52.638;9.216;2023-03-31T10:51:25;99283.75;;;10.30;100.00
32033;BME280;31720;52.638;9.216;2023-03-31T10:54:28;99289.63;;;10.34;100.00
32033;BME280;31720;52.638;9.216;2023-03-31T10:57:35;99285.47;;;10.43;100.00
32033;BME280;31720;52.638;9.216;2023-03-31T11:00:48;99288.00;;;10.55;100.00
32033;BME280;31720;52.638;9.216;2023-03-31T11:04:06;99277.75;;;10.63;100.00
32033;BME280;31720;52.638;9.216;2023-03-31T11:07:16;99281.56;;;10.71;100.00
32033;BME280;31720;52.638;9.216;2023-03-31T11:10:35;99280.84;;;10.80;100.00
32033;BME280;31720;52.638;9.216;2023-03-31T11:13:40;99265.69;;;10.83;100.00
32033;BME280;31720;52.638;9.216;2023-03-31T11:16:48;99272.50;;;10.86;100.00
32033;BME280;31720;52.638;9.216;2023-03-31T11:20:01;99267.72;;;10.91;100.00
32033;BME280;31720;52.638;9.216;2023-03-31T11:23:13;99273.81;;;10.91;100.00
32033;BME280;31720;52.638;9.216;2023-03-31T11:26:24;99274.88;;;10.89;100.00
32033;BME280;31720;52.638;9.216;2023-03-31T11:29:32;99272.00;;;10.92;100.00
32033;BME280;31720;52.638;9.216;2023-03-31T11:32:45;99272.94;;;11.02;100.00
32033;BME280;31720;52.638;9.216;2023-03-31T11:35:56;99274.16;;;11.09;100.00
32033;BME280;31720;52.638;9.216;2023-03-31T11:39:15;99272.31;;;11.21;100.00
32033;BME280;31720;52.638;9.216;2023-03-31T11:42:26;99261.84;;;11.10;100.00
32033;BME280;31720;52.638;9.216;2023-03-31T11:45:32;99256.72;;;11.08;100.00
32033;BME280;31720;52.638;9.216;2023-03-31T11:48:39;99253.72;;;11.13;100.00
32033;BME280;31720;52.638;9.216;2023-03-31T11:51:46;99252.25;;;11.20;100.00
32033;BME280;31720;52.638;9.216;2023-03-31T11:54:52;99252.25;;;11.20;100.00
32033;BME280;31720;52.638;9.216;2023-03-31T11:58:01;99250.81;;;11.16;100.00
32033;BME280;31720;52.638;9.216;2023-03-31T12:01:08;99245.81;;;11.02;100.00
32033;BME280;31720;52.638;9.216;2023-03-31T12:04:22;99243.94;;;10.92;100.00
32033;BME280;31720;52.638;9.216;2023-03-31T12:07:31;99236.78;;;10.95;100.00
32033;BME280;31720;52.638;9.216;2023-03-31T12:10:36;99244.41;;;10.75;100.00
32033;BME280;31720;52.638;9.216;2023-03-31T12:13:44;99236.44;;;10.77;100.00
32033;BME280;31720;52.638;9.216;2023-03-31T12:16:50;99239.63;;;10.80;100.00
32033;BME280;31720;52.638;9.216;2023-03-31T12:19:54;99247.78;;;10.77;100.00
32033;BME280;31720;52.638;9.216;2023-03-31T12:22:59;99241.31;;;10.81;100.00
32033;BME280;31720;52.638;9.216;2023-03-31T12:26:05;99239.03;;;10.88;100.00
32033;BME280;31720;52.638;9.216;2023-03-31T12:29:21;99221.94;;;10.93;100.00
32033;BME280;31720;52.638;9.216;2023-03-31T12:32:28;99232.22;;;10.97;100.00
32033;BME280;31720;52.638;9.216;2023-03-31T12:35:37;99229.72;;;10.95;100.00
32033;BME280;31720;52.638;9.216;2023-03-31T12:38:53;99226.47;;;11.03;100.00
32033;BME280;31720;52.638;9.216;2023-03-31T12:42:06;99215.81;;;11.15;100.00
32033;BME280;31720;52.638;9.216;2023-03-31T12:45:19;99218.53;;;11.25;100.00
32033;BME280;31720;52.638;9.216;2023-03-31T12:48:55;99210.16;;;11.31;100.00
32033;BME280;31720;52.638;9.216;2023-03-31T12:52:01;99203.66;;;11.35;100.00
32033;BME280;31720;52.638;9.216;2023-03-31T12:55:32;99211.69;;;11.45;100.00
32033;BME280;31720;52.638;9.216;2023-03-31T12:58:41;99202.19;;;11.54;100.00
32033;BME280;31720;52.638;9.216;2023-03-31T13:02:16;99195.97;;;11.55;100.00
32033;BME280;31720;52.638;9.216;2023-03-31T13:05:45;99197.25;;;11.60;100.00
32033;BME280;31720;52.638;9.216;2023-03-31T13:08:52;99184.34;;;11.57;100.00
32033;BME280;31720;52.638;9.216;2023-03-31T13:11:53;99197.94;;;11.62;100.00
32033;BME280;31720;52.638;9.216;2023-03-31T13:14:55;99195.97;;;11.55;100.00
32033;BME280;31720;52.638;9.216;2023-03-31T13:18:02;99188.84;;;11.66;100.00
32033;BME280;31720;52.638;9.216;2023-03-31T13:21:04;99187.75;;;11.69;100.00
32033;BME280;31720;52.638;9.216;2023-03-31T13:24:07;99183.25;;;11.60;100.00
32033;BME280;31720;52.638;9.216;2023-03-31T13:27:29;99179.88;;;11.69;100.00
32033;BME280;31720;52.638;9.216;2023-03-31T13:30:51;99174.06;;;11.86;100.00
32033;BME280;31720;52.638;9.216;2023-03-31T13:33:55;99174.81;;;11.98;100.00
32033;BME280;31720;52.638;9.216;2023-03-31T13:37:12;99173.88;;;11.99;100.00
32033;BME280;31720;52.638;9.216;2023-03-31T13:40:39;99166.91;;;11.98;100.00
32033;BME280;31720;52.638;9.216;2023-03-31T13:44:07;99167.47;;;11.81;100.00
32033;BME280;31720;52.638;9.216;2023-03-31T13:47:24;99166.56;;;11.71;100.00
32033;BME280;31720;52.638;9.216;2023-03-31T13:50:47;99166.56;;;11.71;100.00
32033;BME280;31720;52.638;9.216;2023-03-31T13:54:04;99158.28;;;11.75;100.00
32033;BME280;31720;52.638;9.216;2023-03-31T13:57:32;99150.91;;;11.69;100.00
32033;BME280;31720;52.638;9.216;2023-03-31T14:00:47;99157.66;;;11.62;100.00
32033;BME280;31720;52.638;9.216;2023-03-31T14:04:02;99162.22;;;11.60;100.00
32033;BME280;31720;52.638;9.216;2023-03-31T14:07:09;99154.38;;;11.69;100.00
32033;BME280;31720;52.638;9.216;2023-03-31T14:10:28;99154.97;;;11.73;100.00
32033;BME280;31720;52.638;9.216;2023-03-31T14:13:29;99150.97;;;11.79;100.00
32033;BME280;31720;52.638;9.216;2023-03-31T14:16:34;99153.16;;;11.74;100.00
32033;BME280;31720;52.638;9.216;2023-03-31T14:19:49;99152.28;;;11.84;100.00
32033;BME280;31720;52.638;9.216;2023-03-31T14:23:06;99153.38;;;11.82;100.00
32033;BME280;31720;52.638;9.216;2023-03-31T14:26:17;99154.69;;;11.87;100.00
32033;BME280;31720;52.638;9.216;2023-03-31T14:29:24;99161.09;;;11.95;100.00
32033;BME280;31720;52.638;9.216;2023-03-31T14:32:36;99152.34;;;12.15;100.00
32033;BME280;31720;52.638;9.216;2023-03-31T14:35:42;99144.03;;;12.19;100.00
32033;BME280;31720;52.638;9.216;2023-03-31T14:38:47;99153.38;;;12.03;100.00
32033;BME280;31720;52.638;9.216;2023-03-31T14:41:50;99149.69;;;12.15;100.00
32033;BME280;31720;52.638;9.216;2023-03-31T14:44:55;99154.31;;;12.23;100.00
32033;BME280;31720;52.638;9.216;2023-03-31T14:47:58;99142.56;;;12.27;100.00
32033;BME280;31720;52.638;9.216;2023-03-31T14:51:08;99145.69;;;12.21;100.00
32033;BME280;31720;52.638;9.216;2023-03-31T14:54:16;99140.53;;;12.09;100.00
32033;BME280;31720;52.638;9.216;2023-03-31T14:57:26;99151.84;;;12.00;100.00
32033;BME280;31720;52.638;9.216;2023-03-31T15:00:31;99147.34;;;11.91;100.00
32033;BME280;31720;52.638;9.216;2023-03-31T15:03:34;99145.13;;;11.86;100.00
32033;BME280;31720;52.638;9.216;2023-03-31T15:06:37;99140.22;;;11.82;100.00
32033;BME280;31720;52.638;9.216;2023-03-31T15:09:43;99138.06;;;11.76;100.00
32033;BME280;31720;52.638;9.216;2023-03-31T15:12:48;99128.50;;;11.75;100.00
32033;BME280;31720;52.638;9.216;2023-03-31T15:15:50;99129.63;;;11.72;100.00
32033;BME280;31720;52.638;9.216;2023-03-31T15:18:52;99130.00;;;11.67;100.00
32033;BME280;31720;52.638;9.216;2023-03-31T15:21:56;99133.56;;;11.66;100.00
32033;BME280;31720;52.638;9.216;2023-03-31T15:25:02;99130.13;;;11.66;100.00
32033;BME280;31720;52.638;9.216;2023-03-31T15:28:06;99128.31;;;11.66;100.00
32033;BME280;31720;52.638;9.216;2023-03-31T15:31:10;99127.75;;;11.63;100.00
32033;BME280;31720;52.638;9.216;2023-03-31T15:34:19;99126.22;;;11.60;100.00
32033;BME280;31720;52.638;9.216;2023-03-31T15:37:23;99117.88;;;11.55;100.00
32033;BME280;31720;52.638;9.216;2023-03-31T15:40:30;99122.56;;;11.52;100.00
32033;BME280;31720;52.638;9.216;2023-03-31T15:43:44;99133.06;;;11.52;100.00
32033;BME280;31720;52.638;9.216;2023-03-31T15:46:57;99124.34;;;11.51;100.00
32033;BME280;31720;52.638;9.216;2023-03-31T15:50:07;99128.91;;;11.49;100.00
32033;BME280;31720;52.638;9.216;2023-03-31T15:53:25;99132.00;;;11.54;100.00
32033;BME280;31720;52.638;9.216;2023-03-31T15:56:30;99134.28;;;11.48;100.00
32033;BME280;31720;52.638;9.216;2023-03-31T15:59:43;99132.47;;;11.48;100.00
32033;BME280;31720;52.638;9.216;2023-03-31T16:02:45;99138.47;;;11.50;100.00
32033;BME280;31720;52.638;9.216;2023-03-31T16:05:51;99138.34;;;11.52;100.00
32033;BME280;31720;52.638;9.216;2023-03-31T16:08:56;99135.84;;;11.50;100.00
32033;BME280;31720;52.638;9.216;2023-03-31T16:12:03;99136.44;;;11.54;100.00
32033;BME280;31720;52.638;9.216;2023-03-31T16:15:13;99136.66;;;11.51;100.00
32033;BME280;31720;52.638;9.216;2023-03-31T16:18:23;99132.09;;;11.53;100.00